Aviation Digital Data Service (ADDS)

Output produced by METARs form (2016 UTC 20 August 2019)
found at http://www.aviationweather.gov/metar/data/
 
METAR text: RJTF 200835Z VRB01KT 9999 FEW006 BKN020 FEW025CB 26/26 Q1008 RMK 2ST006 6CU020 1CB025 A2979 CB 20KM SE MOV SE
Conditions at: RJTF (CHOFU AIRPORT , JP) observed 0835 UTC 20 August 2019
Temperature: 26.0°C (79°F)
Dewpoint: 26.0°C (79°F) [RH = 100%]
Pressure (altimeter): 29.76 inches Hg (1008.0 mb)
Winds: variable direction winds at 1 MPH (1 knots; 0.5 m/s)
Visibility: 6 or more miles (10+ km)
Ceiling: 2000 feet AGL
Clouds: few clouds at 600 feet AGL
broken clouds at 2000 feet AGL
few clouds at 2500 feet AGL
Weather: no significant weather observed at this time

METAR text: RJTF 200816Z VRB02KT 6000 -TSRA FEW006 SCT015 BKN020 FEW020CB 26/26 Q1008 RMK 2ST006 4CU015 6CU020 1CB020 A2979 FBL TS 10KM SE MOV SE
Conditions at: RJTF (CHOFU AIRPORT , JP) observed 0816 UTC 20 August 2019
Temperature: 26.0°C (79°F)
Dewpoint: 26.0°C (79°F) [RH = 100%]
Pressure (altimeter): 29.76 inches Hg (1008.0 mb)
Winds: variable direction winds at 2 MPH (2 knots; 1.0 m/s)
Visibility: 4 miles ( 6 km)
Ceiling: 2000 feet AGL
Clouds: few clouds at 600 feet AGL
scattered clouds at 1500 feet AGL
broken clouds at 2000 feet AGL
few clouds at 2000 feet AGL
Weather: -TSRA  (light rain associated with thunderstorm(s))

METAR text: RJTF 200809Z 26003KT 210V310 4000 TSRA SCT006 BKN010 BKN020 FEW020CB 26/26 Q1009 RMK 3ST006 5ST010 7CU020 2CB020 A2980 MOD TS OVD MOV E
Conditions at: RJTF (CHOFU AIRPORT , JP) observed 0809 UTC 20 August 2019
Temperature: 26.0°C (79°F)
Dewpoint: 26.0°C (79°F) [RH = 100%]
Pressure (altimeter): 29.79 inches Hg (1009.0 mb)
Winds: from the W (260 degrees) at 3 MPH (3 knots; 1.5 m/s)
Visibility: 2.49 miles (4.01 km)
Ceiling: 1000 feet AGL
Clouds: scattered clouds at 600 feet AGL
broken clouds at 1000 feet AGL
broken clouds at 2000 feet AGL
few clouds at 2000 feet AGL
Weather: TSRA  (rain associated with thunderstorm(s))

METAR text: RJTF 200800Z VRB03KT 2500 +TSRA SCT006 BKN010 BKN020 SCT020CB 26/26 Q1009
Conditions at: RJTF (CHOFU AIRPORT , JP) observed 0800 UTC 20 August 2019
Temperature: 26.0°C (79°F)
Dewpoint: 26.0°C (79°F) [RH = 100%]
Pressure (altimeter): 29.79 inches Hg (1009.0 mb)
Winds: variable direction winds at 3 MPH (3 knots; 1.5 m/s)
Visibility: 1.55 miles (2.49 km)
Ceiling: 1000 feet AGL
Clouds: scattered clouds at 600 feet AGL
broken clouds at 1000 feet AGL
broken clouds at 2000 feet AGL
scattered clouds at 2000 feet AGL
Weather: +TSRA  (heavy rain associated with thunderstorm(s))

METAR text: RJTF 200730Z 01005KT 320V060 4000 TSRA FEW008 BKN015 BKN020 FEW020CB 27/26 Q1008 RMK 2ST008 5CU015 7CU020 2CB020 A2979 FBL TS 10KM NE MOV SE
Conditions at: RJTF (CHOFU AIRPORT , JP) observed 0730 UTC 20 August 2019
Temperature: 27.0°C (81°F)
Dewpoint: 26.0°C (79°F) [RH = 94%]
Pressure (altimeter): 29.76 inches Hg (1008.0 mb)
Winds: from the N (10 degrees) at 6 MPH (5 knots; 2.6 m/s)
Visibility: 2.49 miles (4.01 km)
Ceiling: 1500 feet AGL
Clouds: few clouds at 800 feet AGL
broken clouds at 1500 feet AGL
broken clouds at 2000 feet AGL
few clouds at 2000 feet AGL
Weather: TSRA  (rain associated with thunderstorm(s))

METAR text: RJTF 200719Z 01009KT 4000 +TSRA FEW008 SCT015 BKN020 FEW030CB 28/26 Q1008 RMK 1ST008 3CU015 7CU020 1CB030 A2979 FBL TS 20KM NE MOV SE
Conditions at: RJTF (CHOFU AIRPORT , JP) observed 0719 UTC 20 August 2019
Temperature: 28.0°C (82°F)
Dewpoint: 26.0°C (79°F) [RH = 89%]
Pressure (altimeter): 29.76 inches Hg (1008.0 mb)
Winds: from the N (10 degrees) at 10 MPH (9 knots; 4.6 m/s)
Visibility: 2.49 miles (4.01 km)
Ceiling: 2000 feet AGL
Clouds: few clouds at 800 feet AGL
scattered clouds at 1500 feet AGL
broken clouds at 2000 feet AGL
few clouds at 3000 feet AGL
Weather: +TSRA  (heavy rain associated with thunderstorm(s))

METAR text: RJTF 200715Z 01009KT 330V050 5000 +TSRA FEW008 SCT015 BKN020 FEW030CB 28/26 Q1008 RMK 1ST008 3CU015 7CU020 1CB030 A2979 TS 20KM NE MOV SE
Conditions at: RJTF (CHOFU AIRPORT , JP) observed 0715 UTC 20 August 2019
Temperature: 28.0°C (82°F)
Dewpoint: 26.0°C (79°F) [RH = 89%]
Pressure (altimeter): 29.76 inches Hg (1008.0 mb)
Winds: from the N (10 degrees) at 10 MPH (9 knots; 4.6 m/s)
Visibility: 3 miles ( 5 km)
Ceiling: 2000 feet AGL
Clouds: few clouds at 800 feet AGL
scattered clouds at 1500 feet AGL
broken clouds at 2000 feet AGL
few clouds at 3000 feet AGL
Weather: +TSRA  (heavy rain associated with thunderstorm(s))

METAR text: RJTF 200711Z VRB06G16KT 8000 TSRA FEW010 SCT015 BKN025 FEW030CB 28/26 Q1008 RMK 1ST010 3CU015 5CU025 1CB030 A2979 TS 20KM NE MOV SE
Conditions at: RJTF (CHOFU AIRPORT , JP) observed 0711 UTC 20 August 2019
Temperature: 28.0°C (82°F)
Dewpoint: 26.0°C (79°F) [RH = 89%]
Pressure (altimeter): 29.76 inches Hg (1008.0 mb)
Winds: variable direction winds at 7 MPH (6 knots; 3.1 m/s)
gusting to 18 MPH (16 knots; 8.2 m/s)
Visibility: 5 miles ( 8 km)
Ceiling: 2500 feet AGL
Clouds: few clouds at 1000 feet AGL
scattered clouds at 1500 feet AGL
broken clouds at 2500 feet AGL
few clouds at 3000 feet AGL
Weather: TSRA  (rain associated with thunderstorm(s))

METAR text: RJTF 200707Z VRB03KT 8000 SHRA FEW010 SCT015 BKN025 FEW030CB 29/26 Q1008 RMK 1ST010 3CU015 5CU025 1CB030 A2979 CB 20KM NE MOV SE
Conditions at: RJTF (CHOFU AIRPORT , JP) observed 0707 UTC 20 August 2019
Temperature: 29.0°C (84°F)
Dewpoint: 26.0°C (79°F) [RH = 84%]
Pressure (altimeter): 29.76 inches Hg (1008.0 mb)
Winds: variable direction winds at 3 MPH (3 knots; 1.5 m/s)
Visibility: 5 miles ( 8 km)
Ceiling: 2500 feet AGL
Clouds: few clouds at 1000 feet AGL
scattered clouds at 1500 feet AGL
broken clouds at 2500 feet AGL
few clouds at 3000 feet AGL
Weather: SHRA  (rain showers)

METAR text: RJTF 200700Z 34003KT 280V090 9999 FEW015 SCT025 FEW030CB BKN050 29/25 Q1008
Conditions at: RJTF (CHOFU AIRPORT , JP) observed 0700 UTC 20 August 2019
Temperature: 29.0°C (84°F)
Dewpoint: 25.0°C (77°F) [RH = 79%]
Pressure (altimeter): 29.76 inches Hg (1008.0 mb)
Winds: from the NNW (340 degrees) at 3 MPH (3 knots; 1.5 m/s)
Visibility: 6 or more miles (10+ km)
Ceiling: 5000 feet AGL
Clouds: few clouds at 1500 feet AGL
scattered clouds at 2500 feet AGL
few clouds at 3000 feet AGL
broken clouds at 5000 feet AGL
Weather: no significant weather observed at this time

METAR text: RJTF 200600Z 20006KT 160V240 9999 FEW015 SCT030 BKN060 32/25 Q1008
Conditions at: RJTF (CHOFU AIRPORT , JP) observed 0600 UTC 20 August 2019
Temperature: 32.0°C (90°F)
Dewpoint: 25.0°C (77°F) [RH = 67%]
Pressure (altimeter): 29.76 inches Hg (1008.0 mb)
Winds: from the SSW (200 degrees) at 7 MPH (6 knots; 3.1 m/s)
Visibility: 6 or more miles (10+ km)
Ceiling: 6000 feet AGL
Clouds: few clouds at 1500 feet AGL
scattered clouds at 3000 feet AGL
broken clouds at 6000 feet AGL
Weather: no significant weather observed at this time

METAR text: RJTF 200500Z 19007KT 150V230 9999 FEW015 SCT030 BKN/// 32/25 Q1008
Conditions at: RJTF (CHOFU AIRPORT , JP) observed 0500 UTC 20 August 2019
Temperature: 32.0°C (90°F)
Dewpoint: 25.0°C (77°F) [RH = 67%]
Pressure (altimeter): 29.76 inches Hg (1008.0 mb)
Winds: from the S (190 degrees) at 8 MPH (7 knots; 3.6 m/s)
Visibility: 6 or more miles (10+ km)
Ceiling: at least 12,000 feet AGL
Clouds: few clouds at 1500 feet AGL
scattered clouds at 3000 feet AGL
Weather: no significant weather observed at this time

METAR text: RJTF 200400Z VRB03KT 9999 FEW015 BKN025 32/25 Q1008
Conditions at: RJTF (CHOFU AIRPORT , JP) observed 0400 UTC 20 August 2019
Temperature: 32.0°C (90°F)
Dewpoint: 25.0°C (77°F) [RH = 67%]
Pressure (altimeter): 29.76 inches Hg (1008.0 mb)
Winds: variable direction winds at 3 MPH (3 knots; 1.5 m/s)
Visibility: 6 or more miles (10+ km)
Ceiling: 2500 feet AGL
Clouds: few clouds at 1500 feet AGL
broken clouds at 2500 feet AGL
Weather: no significant weather observed at this time

METAR text: RJTF 200328Z VRB02KT 9999 FEW015 BKN025 BKN050 32/27 Q1009 RMK 1CU015 5CU025 6SC050 A2980
Conditions at: RJTF (CHOFU AIRPORT , JP) observed 0328 UTC 20 August 2019
Temperature: 32.0°C (90°F)
Dewpoint: 27.0°C (81°F) [RH = 75%]
Pressure (altimeter): 29.79 inches Hg (1009.0 mb)
Winds: variable direction winds at 2 MPH (2 knots; 1.0 m/s)
Visibility: 6 or more miles (10+ km)
Ceiling: 2500 feet AGL
Clouds: few clouds at 1500 feet AGL
broken clouds at 2500 feet AGL
broken clouds at 5000 feet AGL
Weather: no significant weather observed at this time

METAR text: RJTF 200300Z 12003KT 080V190 9999 FEW015 BKN025 BKN050 29/25 Q1009
Conditions at: RJTF (CHOFU AIRPORT , JP) observed 0300 UTC 20 August 2019
Temperature: 29.0°C (84°F)
Dewpoint: 25.0°C (77°F) [RH = 79%]
Pressure (altimeter): 29.79 inches Hg (1009.0 mb)
Winds: from the ESE (120 degrees) at 3 MPH (3 knots; 1.5 m/s)
Visibility: 6 or more miles (10+ km)
Ceiling: 2500 feet AGL
Clouds: few clouds at 1500 feet AGL
broken clouds at 2500 feet AGL
broken clouds at 5000 feet AGL
Weather: no significant weather observed at this time

METAR text: RJTF 200200Z 36004KT 340V050 9999 SCT015 BKN025 28/25 Q1010
Conditions at: RJTF (CHOFU AIRPORT , JP) observed 0200 UTC 20 August 2019
Temperature: 28.0°C (82°F)
Dewpoint: 25.0°C (77°F) [RH = 84%]
Pressure (altimeter): 29.82 inches Hg (1010.0 mb)
Winds: from the N (360 degrees) at 5 MPH (4 knots; 2.1 m/s)
Visibility: 6 or more miles (10+ km)
Ceiling: 2500 feet AGL
Clouds: scattered clouds at 1500 feet AGL
broken clouds at 2500 feet AGL
Weather: no significant weather observed at this time

METAR text: RJTF 200100Z 35003KT 300V100 8000 FEW010 BKN015 28/25 Q1010
Conditions at: RJTF (CHOFU AIRPORT , JP) observed 0100 UTC 20 August 2019
Temperature: 28.0°C (82°F)
Dewpoint: 25.0°C (77°F) [RH = 84%]
Pressure (altimeter): 29.82 inches Hg (1010.0 mb)
Winds: from the N (350 degrees) at 3 MPH (3 knots; 1.5 m/s)
Visibility: 5 miles ( 8 km)
Ceiling: 1500 feet AGL
Clouds: few clouds at 1000 feet AGL
broken clouds at 1500 feet AGL
Weather: no significant weather observed at this time

METAR text: RJTF 200000Z 01003KT 300V060 7000 SCT009 BKN015 27/24 Q1011
Conditions at: RJTF (CHOFU AIRPORT , JP) observed 0000 UTC 20 August 2019
Temperature: 27.0°C (81°F)
Dewpoint: 24.0°C (75°F) [RH = 84%]
Pressure (altimeter): 29.85 inches Hg (1011.0 mb)
Winds: from the N (10 degrees) at 3 MPH (3 knots; 1.5 m/s)
Visibility: 4 miles ( 7 km)
Ceiling: 1500 feet AGL
Clouds: scattered clouds at 900 feet AGL
broken clouds at 1500 feet AGL
Weather: no significant weather observed at this time

METAR text: RJTF 192330Z 34003KT 310V010 7000 BKN008 BKN015 26/24 Q1011
Conditions at: RJTF (CHOFU AIRPORT , JP) observed 2330 UTC 19 August 2019
Temperature: 26.0°C (79°F)
Dewpoint: 24.0°C (75°F) [RH = 89%]
Pressure (altimeter): 29.85 inches Hg (1011.0 mb)
Winds: from the NNW (340 degrees) at 3 MPH (3 knots; 1.5 m/s)
Visibility: 4 miles ( 7 km)
Ceiling: 800 feet AGL
Clouds: broken clouds at 800 feet AGL
broken clouds at 1500 feet AGL
Weather: no significant weather observed at this time